Time;durP1;ratioP1;P1;durP2;ratioP2;P2;SDS_P1;SDS_P2;PMS_P1;PMS_P2;Temp;Humidity;BMP_temperature;BMP_pressure;BME280_temperature;BME280_humidity;BME280_pressure;Samples;Min_cycle;Max_cycle;Signal;HPM_P1;HPM_P2
2024/01/27 00:00:30;;;;;;;;;4.00;3.00;;;;;4.32;81.18;101606.59;5096478;28;8825;-57
2024/01/27 00:02:58;;;;;;;;;1.00;1.00;;;;;4.31;81.70;101610.16;5096610;28;8821;-58
2024/01/27 00:05:26;;;;;;;;;1.80;1.00;;;;;4.29;81.75;101606.69;5096013;28;8806;-58
2024/01/27 00:07:58;;;;;;;;;1.00;0.00;;;;;4.26;81.38;101599.72;5095949;28;8830;-57
2024/01/27 00:10:25;;;;;;;;;0.00;0.00;;;;;4.27;81.66;101605.88;5095524;28;8857;-58
2024/01/27 00:12:53;;;;;;;;;1.00;1.00;;;;;4.25;81.82;101612.97;5094993;28;8825;-58
2024/01/27 00:15:21;;;;;;;;;0.40;0.40;;;;;4.22;81.73;101620.94;5094872;28;8821;-57
2024/01/27 00:17:49;;;;;;;;;0.00;0.00;;;;;4.21;81.93;101620.09;5095673;28;8976;-57
2024/01/27 00:20:17;;;;;;;;;1.00;1.00;;;;;4.20;81.87;101615.72;5095994;28;8856;-58
2024/01/27 00:22:45;;;;;;;;;1.40;0.60;;;;;4.20;82.01;101620.97;5094650;28;8826;-58
2024/01/27 00:25:13;;;;;;;;;3.00;0.40;;;;;4.19;81.79;101621.88;5079455;28;8813;-56
2024/01/27 00:27:40;;;;;;;;;1.40;1.40;;;;;4.18;82.09;101627.22;5074323;28;8868;-59
2024/01/27 00:30:08;;;;;;;;;3.60;3.00;;;;;4.16;81.88;101626.38;5075478;28;8907;-57
2024/01/27 00:32:36;;;;;;;;;1.40;1.40;;;;;4.17;81.74;101633.38;5076022;28;8854;-57
2024/01/27 00:35:04;;;;;;;;;1.00;0.20;;;;;4.17;81.87;101630.75;5077339;28;8908;-57
2024/01/27 00:37:31;;;;;;;;;0.80;0.80;;;;;4.16;81.76;101631.66;5075876;28;8838;-58
2024/01/27 00:39:59;;;;;;;;;2.20;1.00;;;;;4.15;82.15;101635.19;5076191;28;8836;-57
2024/01/27 00:42:27;;;;;;;;;1.00;1.00;;;;;4.14;82.06;101636.97;5075066;28;8848;-58
2024/01/27 00:44:55;;;;;;;;;0.00;0.00;;;;;4.14;81.77;101628.19;5076134;28;9572;-58
2024/01/27 00:47:23;;;;;;;;;1.40;1.40;;;;;4.13;81.59;101644.91;5075677;28;8829;-57
2024/01/27 00:49:51;;;;;;;;;1.00;1.00;;;;;4.10;82.12;101653.78;5076310;28;8812;-56
2024/01/27 00:52:19;;;;;;;;;0.00;0.00;;;;;4.08;81.81;101649.44;5075748;28;8846;-57
2024/01/27 00:54:46;;;;;;;;;1.00;1.00;;;;;4.06;82.17;101646.88;5075633;28;8870;-56
2024/01/27 00:57:14;;;;;;;;;1.00;1.00;;;;;4.06;81.62;101654.78;5074833;28;8836;-58
2024/01/27 00:59:42;;;;;;;;;1.00;1.00;;;;;4.06;81.91;101648.63;5075353;28;8895;-57
2024/01/27 01:02:09;;;;;;;;;4.80;4.00;;;;;4.05;82.13;101649.53;5075266;28;8840;-58
2024/01/27 01:04:37;;;;;;;;;3.00;2.60;;;;;4.04;81.67;101656.56;5075052;28;9015;-57
2024/01/27 01:07:05;;;;;;;;;1.00;1.00;;;;;4.03;82.03;101651.34;5075653;28;9498;-57
2024/01/27 01:09:33;;;;;;;;;0.40;0.40;;;;;4.01;82.33;101656.66;5075845;28;8866;-58
2024/01/27 01:12:02;;;;;;;;;1.40;1.40;;;;;4.00;81.84;101648.78;5074819;28;8840;-57
2024/01/27 01:14:29;;;;;;;;;2.40;2.40;;;;;4.01;81.74;101655.78;5075006;28;9515;-57
2024/01/27 01:16:58;;;;;;;;;3.80;3.20;;;;;4.01;82.15;101671.59;5080476;28;8870;-58
2024/01/27 01:19:26;;;;;;;;;1.00;0.00;;;;;4.00;82.40;101659.31;5094876;28;8830;-58
2024/01/27 01:21:54;;;;;;;;;2.20;0.60;;;;;3.99;82.04;101660.22;5094924;28;8833;-58
2024/01/27 01:24:22;;;;;;;;;0.00;0.00;;;;;3.97;82.02;101665.53;5095516;28;8829;-56
2024/01/27 01:26:49;;;;;;;;;2.20;1.40;;;;;3.97;81.76;101654.13;5095097;28;8833;-57
2024/01/27 01:29:17;;;;;;;;;0.20;0.20;;;;;3.97;81.82;101664.69;5095587;28;8905;-57
2024/01/27 01:31:45;;;;;;;;;1.00;1.00;;;;;3.96;82.02;101671.69;5095412;28;8839;-56
2024/01/27 01:34:13;;;;;;;;;3.60;3.00;;;;;3.95;82.35;101667.34;5095806;28;8821;-56
2024/01/27 01:36:40;;;;;;;;;1.00;1.00;;;;;3.94;81.98;101675.28;5095438;28;8832;-57
2024/01/27 01:39:08;;;;;;;;;0.80;0.80;;;;;3.94;82.18;101685.81;5094960;28;9709;-58
2024/01/27 01:41:36;;;;;;;;;3.00;3.00;;;;;3.95;81.89;101687.56;5095634;28;8872;-57
2024/01/27 01:44:04;;;;;;;;;0.80;0.00;;;;;3.93;81.79;101676.19;5094933;28;8836;-56
2024/01/27 01:46:31;;;;;;;;;1.00;1.00;;;;;3.92;81.65;101674.44;5098757;28;8900;-56
2024/01/27 01:48:59;;;;;;;;;1.00;1.00;;;;;3.91;82.21;101681.50;5097628;28;8834;-56
2024/01/27 01:51:27;;;;;;;;;1.00;1.00;;;;;3.88;82.11;101686.84;5097972;28;9254;-57
2024/01/27 01:53:55;;;;;;;;;2.20;1.00;;;;;3.85;82.38;101686.03;5098313;28;8847;-59
2024/01/27 01:56:23;;;;;;;;;1.00;1.00;;;;;3.82;82.58;101686.97;5098276;28;8819;-59
2024/01/27 01:58:50;;;;;;;;;1.80;1.80;;;;;3.78;82.27;101676.56;5097865;28;8829;-57
2024/01/27 02:01:18;;;;;;;;;1.40;1.00;;;;;3.77;82.98;101671.34;5096857;28;8838;-58
2024/01/27 02:03:46;;;;;;;;;2.20;2.20;;;;;3.74;82.23;101673.13;5097328;28;8856;-57
2024/01/27 02:06:14;;;;;;;;;1.40;1.00;;;;;3.73;82.73;101666.13;5096875;28;8837;-57
2024/01/27 02:08:42;;;;;;;;;2.60;1.80;;;;;3.72;82.69;101671.44;5097639;28;8952;-58
2024/01/27 02:11:09;;;;;;;;;4.00;4.00;;;;;3.67;82.11;101671.53;5098134;28;8844;-56
2024/01/27 02:13:38;;;;;;;;;4.20;3.60;;;;;3.66;82.46;101668.97;5098296;28;8849;-55
2024/01/27 02:16:05;;;;;;;;;3.60;3.60;;;;;3.63;82.76;101668.19;5097588;28;8861;-57
2024/01/27 02:18:33;;;;;;;;;3.00;3.00;;;;;3.58;82.76;101670.91;5098545;28;8822;-56
2024/01/27 02:21:01;;;;;;;;;3.40;0.60;;;;;3.58;82.36;101675.31;5098808;28;8814;-56
2024/01/27 02:23:28;;;;;;;;;3.20;3.20;;;;;3.56;82.55;101664.81;5098772;28;8825;-56
2024/01/27 02:25:56;;;;;;;;;0.60;0.40;;;;;3.53;82.70;101657.00;5099463;28;9515;-57
2024/01/27 02:28:24;;;;;;;;;0.80;0.80;;;;;3.53;82.77;101671.91;5098625;28;8806;-58
2024/01/27 02:30:51;;;;;;;;;3.00;3.00;;;;;3.51;83.08;101671.97;5084322;28;8815;-56
2024/01/27 02:33:19;;;;;;;;;4.00;1.00;;;;;3.52;82.93;101672.81;5097887;28;8818;-56
2024/01/27 02:35:48;;;;;;;;;1.00;0.80;;;;;3.51;82.57;101674.59;5097989;28;8810;-57
2024/01/27 02:38:16;;;;;;;;;1.40;1.40;;;;;3.52;82.97;101675.44;5098279;28;8876;-56
2024/01/27 02:40:43;;;;;;;;;1.40;1.40;;;;;3.52;82.40;101678.97;5089538;28;8931;-58
2024/01/27 02:43:11;;;;;;;;;1.80;1.80;;;;;3.51;82.27;101674.59;5097584;28;8906;-58
2024/01/27 02:45:39;;;;;;;;;0.80;0.80;;;;;3.51;82.32;101674.59;5097159;28;8821;-57
2024/01/27 02:48:06;;;;;;;;;0.60;0.60;;;;;3.51;82.82;101674.59;5097487;28;8901;-58
2024/01/27 02:50:34;;;;;;;;;0.80;0.80;;;;;3.50;82.42;101674.63;5081300;28;8824;-57
2024/01/27 02:53:02;;;;;;;;;1.80;1.80;;;;;3.50;82.51;101672.88;5078355;28;8820;-58
2024/01/27 02:55:30;;;;;;;;;0.00;0.00;;;;;3.50;82.36;101675.50;5077125;28;8836;-58
2024/01/27 02:57:58;;;;;;;;;1.00;1.00;;;;;3.49;82.67;101681.63;5077006;28;8828;-58
2024/01/27 03:00:25;;;;;;;;;1.00;1.00;;;;;3.48;82.66;101673.81;5077591;28;8802;-56
2024/01/27 03:02:54;;;;;;;;;2.60;2.60;;;;;3.46;82.63;101680.84;5077630;28;8813;-57
2024/01/27 03:05:21;;;;;;;;;1.00;0.60;;;;;3.45;82.39;101673.84;5077522;28;8844;-57
2024/01/27 03:07:49;;;;;;;;;2.60;1.80;;;;;3.43;82.41;101668.66;5076462;28;8835;-56
2024/01/27 03:10:17;;;;;;;;;1.80;1.80;;;;;3.43;82.58;101679.19;5075051;28;8820;-57
2024/01/27 03:12:44;;;;;;;;;0.60;0.60;;;;;3.42;82.70;101672.16;5076191;28;8839;-58
2024/01/27 03:15:12;;;;;;;;;0.20;0.20;;;;;3.40;82.63;101681.00;5076627;28;8854;-57
2024/01/27 03:17:40;;;;;;;;;1.40;1.40;;;;;3.36;82.94;101682.84;5088294;28;8826;-57
2024/01/27 03:20:09;;;;;;;;;2.60;2.60;;;;;3.35;82.61;101680.25;5096853;28;9256;-57
2024/01/27 03:22:37;;;;;;;;;1.40;0.60;;;;;3.34;83.18;101692.53;5097457;28;8836;-58
2024/01/27 03:25:04;;;;;;;;;0.60;0.60;;;;;3.34;83.01;101691.69;5096035;28;8967;-56
2024/01/27 03:27:32;;;;;;;;;1.80;1.40;;;;;3.31;83.03;101687.34;5095948;28;8942;-58
2024/01/27 03:30:00;;;;;;;;;1.00;1.00;;;;;3.29;83.12;101690.91;5096852;28;8818;-57
2024/01/27 03:32:27;;;;;;;;;3.00;2.20;;;;;3.26;82.28;101698.88;5095887;28;8837;-57
2024/01/27 03:34:55;;;;;;;;;0.00;0.00;;;;;3.24;83.24;101692.78;5096772;28;8846;-57
2024/01/27 03:37:23;;;;;;;;;3.00;3.00;;;;;3.22;82.50;101698.06;5095752;28;8945;-56
2024/01/27 03:39:51;;;;;;;;;2.60;2.60;;;;;3.21;82.72;101693.72;5096665;28;8811;-57
2024/01/27 03:42:18;;;;;;;;;3.00;3.00;;;;;3.19;83.17;101689.38;5096563;28;8835;-57
2024/01/27 03:44:46;;;;;;;;;2.20;2.20;;;;;3.17;82.63;101684.13;5096252;28;8963;-56
2024/01/27 03:47:14;;;;;;;;;1.60;1.40;;;;;3.15;83.01;101679.81;5096599;28;8982;-58
2024/01/27 03:49:42;;;;;;;;;1.00;1.00;;;;;3.13;83.28;101685.13;5076267;28;8838;-58
2024/01/27 03:52:10;;;;;;;;;1.80;0.80;;;;;3.14;82.50;101684.22;5075995;28;8824;-56
2024/01/27 03:54:37;;;;;;;;;1.80;1.80;;;;;3.15;83.20;101695.59;5076689;28;8824;-57
2024/01/27 03:57:06;;;;;;;;;1.00;0.80;;;;;3.14;83.23;101689.47;5076142;28;9517;-58
2024/01/27 03:59:33;;;;;;;;;1.00;1.00;;;;;3.13;82.86;101687.75;5094186;28;8841;-57
2024/01/27 04:02:01;;;;;;;;;1.80;1.80;;;;;3.15;82.90;101685.94;5094798;28;9517;-58
2024/01/27 04:04:29;;;;;;;;;1.00;1.00;;;;;3.17;82.55;101689.41;5094143;28;8812;-56
2024/01/27 04:06:57;;;;;;;;;3.00;1.40;;;;;3.19;82.73;101692.84;5094871;28;9562;-57
2024/01/27 04:09:25;;;;;;;;;0.80;0.80;;;;;3.22;82.78;101695.44;5095117;28;8803;-57
2024/01/27 04:11:52;;;;;;;;;4.00;3.60;;;;;3.25;82.49;101697.16;5095701;28;8820;-57
2024/01/27 04:14:20;;;;;;;;;1.00;0.00;;;;;3.25;83.09;101691.88;5095515;28;8818;-57
2024/01/27 04:16:48;;;;;;;;;1.00;1.00;;;;;3.25;82.93;101687.47;5095642;28;8838;-57
2024/01/27 04:19:16;;;;;;;;;3.00;3.00;;;;;3.29;82.64;101683.88;5096549;28;8822;-57
2024/01/27 04:21:44;;;;;;;;;3.00;3.00;;;;;3.31;82.67;101682.06;5095199;28;8841;-58
2024/01/27 04:24:11;;;;;;;;;1.80;1.00;;;;;3.34;82.89;101692.53;5095042;28;8814;-57
2024/01/27 04:26:39;;;;;;;;;3.60;3.60;;;;;3.36;82.58;101693.38;5094733;28;8865;-57
2024/01/27 04:29:08;;;;;;;;;3.60;3.60;;;;;3.38;82.92;101688.06;5093576;28;8817;-58
2024/01/27 04:31:35;;;;;;;;;1.40;1.40;;;;;3.38;82.69;101688.06;5094147;28;8837;-57
2024/01/27 04:34:04;;;;;;;;;2.20;2.20;;;;;3.38;82.72;101683.66;5092920;28;8948;-58
2024/01/27 04:36:31;;;;;;;;;2.60;2.60;;;;;3.38;82.38;101688.94;5094300;28;8821;-57
2024/01/27 04:38:59;;;;;;;;;4.00;3.00;;;;;3.38;82.31;101682.78;5094147;28;8849;-57
2024/01/27 04:41:27;;;;;;;;;2.60;2.60;;;;;3.38;82.87;101690.69;5095095;28;8848;-57
2024/01/27 04:43:56;;;;;;;;;0.60;0.60;;;;;3.37;82.43;101689.84;5092937;28;9626;-58
2024/01/27 04:46:24;;;;;;;;;3.60;2.60;;;;;3.39;83.37;101692.44;5095252;28;8849;-58
2024/01/27 04:48:51;;;;;;;;;3.20;3.20;;;;;3.40;82.83;101692.38;5094272;28;8922;-57
2024/01/27 04:51:19;;;;;;;;;0.40;0.40;;;;;3.39;82.51;101697.72;5094947;28;8876;-58
2024/01/27 04:53:47;;;;;;;;;1.80;1.00;;;;;3.38;82.81;101699.47;5094823;28;9511;-58
2024/01/27 04:56:15;;;;;;;;;1.40;1.00;;;;;3.37;82.92;101700.38;5094469;28;8845;-58
2024/01/27 04:58:43;;;;;;;;;1.00;1.00;;;;;3.38;83.18;101706.47;5094805;28;8960;-58
2024/01/27 05:01:11;;;;;;;;;1.40;1.40;;;;;3.35;82.22;101710.06;5093558;28;8844;-58
2024/01/27 05:03:39;;;;;;;;;2.20;2.20;;;;;3.33;83.06;101708.38;5094487;28;8830;-58
2024/01/27 05:06:07;;;;;;;;;1.40;1.40;;;;;3.32;82.44;101720.66;5094893;28;8842;-58
2024/01/27 05:08:35;;;;;;;;;1.00;1.00;;;;;3.32;82.42;101719.81;5094231;28;8859;-57
2024/01/27 05:11:03;;;;;;;;;1.00;1.00;;;;;3.29;82.94;101726.00;5095376;28;8908;-57
2024/01/27 05:13:31;;;;;;;;;1.00;1.00;;;;;3.28;82.69;101719.00;5093455;28;8827;-57
2024/01/27 05:15:59;;;;;;;;;2.60;1.00;;;;;3.26;83.18;101722.56;5094231;28;8832;-57
2024/01/27 05:18:26;;;;;;;;;3.80;3.00;;;;;3.22;83.07;101726.16;5094528;28;9515;-57
2024/01/27 05:20:54;;;;;;;;;1.80;1.00;;;;;3.21;83.38;101722.66;5095390;28;8899;-55
2024/01/27 05:23:23;;;;;;;;;2.60;2.60;;;;;3.20;82.67;101725.31;5078839;28;8925;-57
2024/01/27 05:25:51;;;;;;;;;4.00;4.00;;;;;3.19;82.96;101727.06;5078170;28;8836;-57
2024/01/27 05:28:18;;;;;;;;;1.00;0.00;;;;;3.20;83.14;101733.22;5078640;28;8954;-57
2024/01/27 05:30:46;;;;;;;;;1.00;1.00;;;;;3.21;82.93;101721.78;5077308;28;9497;-57
2024/01/27 05:33:15;;;;;;;;;3.00;1.00;;;;;3.21;82.81;101727.03;5097764;28;8940;-57
2024/01/27 05:35:44;;;;;;;;;2.60;2.20;;;;;3.20;82.82;101731.47;5098402;28;8946;-56
2024/01/27 05:38:12;;;;;;;;;5.80;4.80;;;;;3.20;82.59;101722.69;5098575;28;8847;-57
2024/01/27 05:40:39;;;;;;;;;1.00;1.00;;;;;3.16;82.66;101719.25;5098105;28;8826;-57
2024/01/27 05:43:08;;;;;;;;;3.00;3.00;;;;;3.12;83.03;101728.13;5073486;28;8800;-56
2024/01/27 05:45:36;;;;;;;;;4.40;3.20;;;;;3.10;82.88;101722.00;5077672;28;8946;-58
2024/01/27 05:48:04;;;;;;;;;1.00;0.60;;;;;3.08;83.25;101725.56;5077723;28;8871;-58
2024/01/27 05:50:32;;;;;;;;;0.40;0.40;;;;;3.05;82.82;101723.88;5078269;28;8819;-56
2024/01/27 05:52:59;;;;;;;;;2.20;0.20;;;;;3.04;82.87;101726.53;5077514;28;8850;-58
2024/01/27 05:55:28;;;;;;;;;3.00;3.00;;;;;3.02;83.20;101734.44;5078917;28;9779;-58
2024/01/27 05:57:57;;;;;;;;;3.00;3.00;;;;;2.98;82.67;101731.91;5077953;28;8847;-56
2024/01/27 06:00:24;;;;;;;;;1.00;1.00;;;;;2.95;83.37;101732.00;5078173;28;8842;-56
2024/01/27 06:02:52;;;;;;;;;3.00;3.00;;;;;2.92;83.43;101735.56;5077298;28;8807;-58
2024/01/27 06:05:20;;;;;;;;;1.00;0.40;;;;;2.91;83.28;101732.94;5077010;28;8845;-58
2024/01/27 06:07:49;;;;;;;;;1.00;1.00;;;;;2.87;83.27;101747.91;5077734;28;8809;-56
2024/01/27 06:10:18;;;;;;;;;0.80;0.80;;;;;2.85;82.99;101746.22;5077474;28;8818;-58
2024/01/27 06:12:46;;;;;;;;;3.60;3.20;;;;;2.81;83.07;101755.91;5077713;28;8816;-56
2024/01/27 06:15:15;;;;;;;;;3.20;3.00;;;;;2.78;83.40;101748.09;5097934;28;8961;-57
2024/01/27 06:17:43;;;;;;;;;1.00;1.00;;;;;2.77;83.44;101748.13;5089778;28;8895;-57
2024/01/27 06:20:11;;;;;;;;;3.80;3.00;;;;;2.79;83.76;101749.81;5098434;28;8864;-58
2024/01/27 06:22:39;;;;;;;;;4.40;3.60;;;;;2.82;83.59;101748.91;5098492;28;8884;-55
2024/01/27 06:25:06;;;;;;;;;4.00;4.00;;;;;2.82;83.43;101747.16;5098694;28;8830;-56
2024/01/27 06:27:34;;;;;;;;;3.80;3.80;;;;;2.83;83.57;101753.25;5098778;28;8832;-57
2024/01/27 06:30:02;;;;;;;;;1.00;1.00;;;;;2.83;83.35;101762.03;5098211;28;8968;-55
2024/01/27 06:32:29;;;;;;;;;4.80;4.80;;;;;2.83;83.65;101763.78;5098105;28;8827;-57
2024/01/27 06:34:57;;;;;;;;;3.00;3.00;;;;;2.81;83.62;101755.91;5097718;28;8914;-57
2024/01/27 06:37:25;;;;;;;;;2.20;2.20;;;;;2.81;83.86;101761.19;5098012;28;8855;-56
2024/01/27 06:39:53;;;;;;;;;3.80;3.80;;;;;2.79;82.91;101757.72;5097997;28;8845;-57
2024/01/27 06:42:21;;;;;;;;;6.60;6.40;;;;;2.78;83.60;101748.09;5098446;28;8846;-56
2024/01/27 06:44:48;;;;;;;;;6.40;6.40;;;;;2.79;83.61;101759.50;5098176;28;8857;-55
2024/01/27 06:47:16;;;;;;;;;2.00;1.40;;;;;2.78;83.25;101760.38;5098219;28;8857;-56
2024/01/27 06:49:44;;;;;;;;;7.80;7.80;;;;;2.76;83.51;101752.53;5097999;28;8818;-57
2024/01/27 06:52:12;;;;;;;;;3.80;3.80;;;;;2.74;83.55;101756.94;5097848;28;8841;-57
2024/01/27 06:54:43;;;;;;;;;7.00;6.00;;;;;2.72;83.20;101756.09;5097938;28;8820;-56
2024/01/27 06:57:11;;;;;;;;;5.60;4.00;;;;;2.71;83.60;101761.38;5097934;28;8909;-56
2024/01/27 06:59:40;;;;;;;;;5.40;5.40;;;;;2.69;83.79;101764.06;5098033;28;8922;-56
2024/01/27 07:02:13;;;;;;;;;4.00;4.00;;;;;2.69;83.79;101755.28;5096985;28;8822;-56
2024/01/27 07:04:41;;;;;;;;;4.00;4.00;;;;;2.67;83.45;101760.59;5097879;28;8821;-56
2024/01/27 07:07:10;;;;;;;;;3.20;3.20;;;;;2.67;83.37;101775.50;5097710;28;8834;-57
2024/01/27 07:09:38;;;;;;;;;3.40;3.40;;;;;2.64;83.81;101771.16;5097514;28;8845;-56
2024/01/27 07:12:06;;;;;;;;;6.00;6.00;;;;;2.65;83.51;101786.03;5097281;28;8814;-56
2024/01/27 07:14:34;;;;;;;;;3.20;2.60;;;;;2.66;83.88;101789.53;5097530;28;8875;-56
2024/01/27 07:17:01;;;;;;;;;0.80;0.80;;;;;2.65;83.73;101798.31;5097395;28;8869;-56
2024/01/27 07:19:29;;;;;;;;;4.00;4.00;;;;;2.65;83.81;101795.69;5096979;28;9511;-56
2024/01/27 07:21:57;;;;;;;;;4.80;3.20;;;;;2.65;83.35;101785.19;5095888;28;8951;-55
2024/01/27 07:24:25;;;;;;;;;1.40;1.40;;;;;2.65;83.30;101785.19;5096528;28;8834;-57
2024/01/27 07:26:53;;;;;;;;;1.80;1.80;;;;;2.65;83.36;101783.41;5096293;28;8952;-56
2024/01/27 07:29:23;;;;;;;;;4.00;4.00;;;;;2.65;83.73;101777.28;5096533;28;8861;-56
2024/01/27 07:31:50;;;;;;;;;3.60;2.60;;;;;2.66;83.33;101789.53;5096650;28;8822;-57
2024/01/27 07:34:18;;;;;;;;;3.80;3.20;;;;;2.67;83.95;101781.63;5096739;28;8807;-57
2024/01/27 07:36:48;;;;;;;;;4.00;4.00;;;;;2.68;83.27;101780.72;5096629;28;8796;-57
2024/01/27 07:39:15;;;;;;;;;2.60;2.20;;;;;2.72;83.68;101781.53;5096410;28;8942;-56
2024/01/27 07:41:43;;;;;;;;;5.20;3.40;;;;;2.75;83.69;101773.59;5096620;28;9539;-56
2024/01/27 07:44:11;;;;;;;;;5.60;4.80;;;;;2.75;83.39;101784.09;5095176;28;8833;-54
2024/01/27 07:46:39;;;;;;;;;4.00;3.20;;;;;2.76;83.57;101775.31;5096448;28;8857;-57
2024/01/27 07:49:07;;;;;;;;;9.20;5.60;;;;;2.80;83.34;101785.75;5095720;28;8837;-54
2024/01/27 07:51:35;;;;;;;;;3.80;3.80;;;;;2.86;83.14;101776.88;5095386;28;8841;-56
2024/01/27 07:54:03;;;;;;;;;8.00;6.40;;;;;2.91;83.45;101786.44;5095188;28;8829;-55
2024/01/27 07:56:31;;;;;;;;;3.60;3.40;;;;;2.95;83.69;101782.81;5095988;28;8851;-56
2024/01/27 07:58:58;;;;;;;;;3.20;3.00;;;;;3.01;82.88;101787.97;5096047;28;8821;-55
2024/01/27 08:01:26;;;;;;;;;4.40;3.20;;;;;3.07;82.65;101789.63;5096561;28;8964;-56
2024/01/27 08:03:54;;;;;;;;;3.60;3.40;;;;;3.10;83.13;101790.41;5080808;28;8848;-57
2024/01/27 08:06:22;;;;;;;;;3.00;3.00;;;;;3.15;82.75;101790.31;5094401;28;8893;-56
2024/01/27 08:08:50;;;;;;;;;3.00;3.00;;;;;3.19;82.88;101792.88;5095479;28;9744;-57
2024/01/27 08:11:18;;;;;;;;;4.00;3.20;;;;;3.22;82.64;101791.94;5096090;28;8844;-57
2024/01/27 08:13:45;;;;;;;;;3.80;3.20;;;;;3.25;83.03;101787.47;5094501;28;8956;-57
2024/01/27 08:16:14;;;;;;;;;3.00;3.00;;;;;3.28;82.79;101792.72;5094551;28;8832;-56
2024/01/27 08:18:42;;;;;;;;;3.20;3.20;;;;;3.34;82.92;101796.97;5095503;28;8874;-56
2024/01/27 08:21:10;;;;;;;;;2.20;2.20;;;;;3.41;82.21;101799.44;5092686;28;8829;-57
2024/01/27 08:23:38;;;;;;;;;3.00;3.00;;;;;3.48;82.24;101808.09;5094734;28;8826;-55
2024/01/27 08:26:05;;;;;;;;;3.00;3.00;;;;;3.52;82.61;101802.72;5094757;28;8837;-57
2024/01/27 08:28:34;;;;;;;;;3.60;3.60;;;;;3.58;82.01;101812.25;5092530;28;8810;-56
2024/01/27 08:31:02;;;;;;;;;5.60;4.00;;;;;3.62;81.73;101820.03;5075251;28;8865;-57
2024/01/27 08:33:29;;;;;;;;;0.60;0.20;;;;;3.69;81.97;101826.91;5091717;28;8818;-57
2024/01/27 08:35:57;;;;;;;;;3.60;3.60;;;;;3.73;82.02;101815.44;5095381;28;8822;-56
2024/01/27 08:38:25;;;;;;;;;0.80;0.80;;;;;3.82;81.39;101808.16;5083930;28;8897;-57
2024/01/27 08:40:53;;;;;;;;;0.00;0.00;;;;;3.97;81.22;101817.50;5074095;28;8858;-57
2024/01/27 08:43:20;;;;;;;;;0.80;0.80;;;;;4.09;81.48;101819.84;5074796;28;8825;-57
2024/01/27 08:45:48;;;;;;;;;3.00;2.60;;;;;4.17;81.64;101820.53;5073530;28;8836;-56
2024/01/27 08:48:16;;;;;;;;;3.40;3.40;;;;;4.24;81.06;101830.03;5074484;28;8841;-57
2024/01/27 08:50:44;;;;;;;;;3.00;3.00;;;;;4.31;81.54;101831.63;5074680;28;9498;-57
2024/01/27 08:53:12;;;;;;;;;3.40;2.60;;;;;4.37;80.64;101823.56;5073866;28;8913;-56
2024/01/27 08:55:40;;;;;;;;;4.00;2.40;;;;;4.42;81.01;101832.25;5074788;28;8840;-57
2024/01/27 08:58:07;;;;;;;;;8.00;5.60;;;;;4.46;80.58;101828.59;5074126;28;8818;-57
2024/01/27 09:00:35;;;;;;;;;6.80;5.00;;;;;4.52;80.84;101828.47;5073438;28;8833;-56
2024/01/27 09:03:03;;;;;;;;;3.40;3.00;;;;;4.56;81.36;101819.59;5074217;28;8840;-58
2024/01/27 09:05:31;;;;;;;;;4.80;3.20;;;;;4.61;80.73;101822.94;5074890;28;8830;-57
2024/01/27 09:07:59;;;;;;;;;3.00;3.00;;;;;4.66;80.48;101823.72;5074739;28;8826;-57
2024/01/27 09:10:28;;;;;;;;;1.00;0.80;;;;;4.73;80.65;101817.38;5074585;28;8837;-58
2024/01/27 09:12:57;;;;;;;;;4.00;4.00;;;;;4.78;80.43;101804.94;5075179;28;8818;-57
2024/01/27 09:15:24;;;;;;;;;4.60;4.00;;;;;4.84;79.96;101815.31;5085418;28;8871;-57
2024/01/27 09:17:52;;;;;;;;;3.20;3.00;;;;;4.88;80.33;101815.19;5095191;28;8865;-57
2024/01/27 09:20:20;;;;;;;;;5.60;4.00;;;;;4.94;79.97;101824.75;5094949;28;8840;-57
2024/01/27 09:22:49;;;;;;;;;4.80;3.00;;;;;4.98;79.84;101821.97;5094627;28;8892;-58
2024/01/27 09:25:17;;;;;;;;;4.00;3.80;;;;;5.01;79.99;101813.97;5094445;28;8857;-58
2024/01/27 09:27:45;;;;;;;;;3.20;3.00;;;;;5.06;79.98;101833.19;5095229;28;8834;-55
2024/01/27 09:30:12;;;;;;;;;4.00;3.20;;;;;5.12;80.01;101832.16;5095320;28;9515;-57
2024/01/27 09:32:40;;;;;;;;;4.00;4.00;;;;;5.16;79.83;101829.38;5095106;28;8952;-55
2024/01/27 09:35:09;;;;;;;;;5.20;5.20;;;;;5.24;79.37;101834.47;5093796;28;8833;-55
2024/01/27 09:37:36;;;;;;;;;4.40;4.40;;;;;5.30;79.63;101831.63;5094281;28;9031;-56
2024/01/27 09:40:04;;;;;;;;;5.20;4.00;;;;;5.37;79.12;101834.06;5093353;28;8915;-55
2024/01/27 09:42:32;;;;;;;;;4.80;4.00;;;;;5.43;79.28;101836.53;5094264;28;8910;-55
2024/01/27 09:45:01;;;;;;;;;3.00;3.00;;;;;5.50;79.35;101838.09;5094049;28;8806;-57
2024/01/27 09:47:29;;;;;;;;;2.60;2.60;;;;;5.59;79.40;101834.31;5094133;28;8846;-56
2024/01/27 09:49:57;;;;;;;;;3.80;3.00;;;;;5.66;79.05;101835.88;5094290;28;8957;-56
2024/01/27 09:52:25;;;;;;;;;3.60;3.60;;;;;5.76;78.90;101838.19;5093580;28;8853;-56
2024/01/27 09:54:53;;;;;;;;;6.00;4.00;;;;;5.85;78.66;101835.31;5092276;28;8858;-57
2024/01/27 09:57:21;;;;;;;;;3.00;3.00;;;;;5.95;78.66;101833.25;5093247;28;8854;-57
2024/01/27 09:59:50;;;;;;;;;4.00;4.00;;;;;6.05;78.47;101832.06;5092482;28;8835;-57
2024/01/27 10:02:19;;;;;;;;;4.80;4.00;;;;;6.16;78.10;101822.03;5092006;28;8831;-58
2024/01/27 10:04:48;;;;;;;;;1.00;1.00;;;;;6.25;78.23;101821.72;5093277;28;8916;-57
2024/01/27 10:07:16;;;;;;;;;1.00;1.00;;;;;6.36;77.97;101817.81;5097234;28;8813;-56
2024/01/27 10:09:44;;;;;;;;;3.40;3.40;;;;;6.48;77.92;101813.91;5097930;28;8857;-56
2024/01/27 10:12:12;;;;;;;;;3.60;2.20;;;;;6.62;77.71;101824.91;5097807;28;8798;-55
2024/01/27 10:14:40;;;;;;;;;5.00;4.00;;;;;6.79;77.00;101815.47;5097579;28;8946;-56
2024/01/27 10:17:08;;;;;;;;;3.00;2.50;;;;;7.00;77.50;101829.75;5097641;28;8814;-57
2024/01/27 10:19:35;;;;;;;;;2.50;2.50;;;;;7.20;76.75;101832.56;5097769;28;8804;-57
2024/01/27 10:22:06;;;;;;;;;3.50;3.50;;;;;7.39;76.62;101842.47;5098058;28;8889;-57
2024/01/27 10:24:36;;;;;;;;;2.00;1.00;;;;;7.62;76.34;101825.69;5097851;28;8815;-56
2024/01/27 10:27:04;;;;;;;;;6.00;4.00;;;;;7.91;76.17;101827.19;5097773;28;8842;-56
2024/01/27 10:29:32;;;;;;;;;1.00;0.50;;;;;8.29;75.44;101821.25;5097523;28;8831;-56
2024/01/27 10:32:00;;;;;;;;;2.00;2.00;;;;;8.77;74.51;101836.97;5097781;28;8958;-56
2024/01/27 10:34:30;;;;;;;;;2.33;2.33;;;;;9.50;73.28;101833.69;5096708;28;8907;-58
2024/01/27 10:36:58;;;;;;;;;2.50;1.00;;;;;10.45;71.42;101830.06;5097053;28;8814;-58
2024/01/27 10:39:26;;;;;;;;;0.25;0.25;;;;;11.47;69.21;101816.75;5096448;28;8834;-58
2024/01/27 10:41:54;;;;;;;;;1.00;1.00;;;;;12.38;68.07;101806.25;5096012;28;8958;-57
2024/01/27 10:44:22;;;;;;;;;3.00;2.50;;;;;13.11;66.96;101795.66;5096222;28;8834;-57
2024/01/27 10:46:51;;;;;;;;;2.50;1.00;;;;;13.67;65.73;101784.16;5096761;28;8822;-58
2024/01/27 10:49:19;;;;;;;;;1.00;1.00;;;;;14.02;65.10;101785.41;5096884;28;9561;-56
2024/01/27 10:51:47;;;;;;;;;1.00;1.00;;;;;14.24;65.35;101791.16;5093574;28;8822;-56
2024/01/27 10:54:15;;;;;;;;;3.00;1.00;;;;;14.54;64.86;101773.03;5096089;28;8842;-56
2024/01/27 10:56:42;;;;;;;;;1.00;1.00;;;;;14.91;64.33;101778.53;5096504;28;8810;-58
2024/01/27 10:59:10;;;;;;;;;1.50;1.00;;;;;15.11;64.54;101777.16;5096931;28;8814;-57
2024/01/27 11:01:38;;;;;;;;;0.00;0.00;;;;;15.26;64.45;101784.13;5096612;28;8814;-56
2024/01/27 11:04:07;;;;;;;;;3.60;3.20;;;;;15.35;64.44;101784.41;5096850;28;8838;-57
2024/01/27 11:06:36;;;;;;;;;0.60;0.60;;;;;15.50;63.88;101779.75;5096322;28;8955;-58
2024/01/27 11:09:05;;;;;;;;;3.00;3.00;;;;;15.60;64.05;101784.38;5095297;28;8836;-57
2024/01/27 11:11:33;;;;;;;;;3.00;2.20;;;;;15.69;63.48;101778.34;5094983;28;8822;-57
2024/01/27 11:14:01;;;;;;;;;2.20;2.20;;;;;15.56;63.87;101782.03;5095041;28;8965;-57
2024/01/27 11:16:29;;;;;;;;;2.20;1.00;;;;;15.40;65.00;101782.22;5093529;28;8964;-57
2024/01/27 11:18:57;;;;;;;;;1.00;1.00;;;;;15.52;64.93;101781.38;5093992;28;8815;-58
2024/01/27 11:21:25;;;;;;;;;0.60;0.60;;;;;15.78;64.32;101783.06;5094720;28;8802;-56
2024/01/27 11:23:53;;;;;;;;;1.00;1.00;;;;;16.00;63.86;101788.59;5094728;28;8826;-56
2024/01/27 11:26:21;;;;;;;;;3.40;2.80;;;;;16.26;63.22;101788.41;5094564;28;8848;-56
2024/01/27 11:28:49;;;;;;;;;1.00;1.00;;;;;16.59;62.12;101783.25;5095562;28;8830;-55
2024/01/27 11:31:17;;;;;;;;;1.00;0.20;;;;;16.73;62.67;101783.09;5095321;28;8826;-58
2024/01/27 11:33:45;;;;;;;;;2.60;1.00;;;;;16.73;62.19;101780.41;5094940;28;8899;-57
2024/01/27 11:36:13;;;;;;;;;3.00;3.00;;;;;16.49;62.86;101776.84;5094325;28;8833;-57
2024/01/27 11:38:41;;;;;;;;;1.00;1.00;;;;;16.24;63.09;101779.59;5094721;28;8838;-56
2024/01/27 11:41:09;;;;;;;;;1.80;1.00;;;;;16.16;63.32;101785.66;5093794;28;8818;-56
2024/01/27 11:43:37;;;;;;;;;1.00;1.00;;;;;16.11;62.49;101780.63;5094184;28;8969;-59